Time;durP1;ratioP1;P1;durP2;ratioP2;P2;SDS_P1;SDS_P2;PMS_P1;PMS_P2;Temp;Humidity;BMP_temperature;BMP_pressure;BME280_temperature;BME280_humidity;BME280_pressure;Samples;Min_cycle;Max_cycle;Signal;HPM_P1;HPM_P2
2022/08/25 00:01:37;;;;;;;1.90;1.80;;;20.00;60.20;;;;;;5084590;28;20373;-60
2022/08/25 00:04:06;;;;;;;2.63;1.75;;;19.90;60.50;;;;;;5058616;28;20025;-60
2022/08/25 00:06:32;;;;;;;3.25;2.25;;;19.90;60.20;;;;;;5058167;28;20110;-62
2022/08/25 00:08:58;;;;;;;7.40;2.30;;;19.90;60.40;;;;;;5058977;28;20607;-60
2022/08/25 00:11:27;;;;;;;3.92;2.40;;;19.80;60.70;;;;;;5067996;28;20033;-61
2022/08/25 00:13:59;;;;;;;5.45;2.22;;;19.80;61.00;;;;;;5070202;28;20037;-61
2022/08/25 00:16:26;;;;;;;4.78;2.30;;;19.80;61.10;;;;;;5045152;28;20041;-61
2022/08/25 00:18:55;;;;;;;2.63;2.17;;;19.70;60.80;;;;;;5063479;28;20021;-60
2022/08/25 00:21:23;;;;;;;2.42;2.00;;;19.70;61.20;;;;;;5073581;28;20024;-61
2022/08/25 00:23:49;;;;;;;5.72;2.20;;;19.70;61.20;;;;;;5056530;28;20380;-62
2022/08/25 00:26:15;;;;;;;4.15;2.00;;;19.70;61.20;;;;;;5063681;28;20104;-60
2022/08/25 00:28:42;;;;;;;3.15;2.55;;;19.60;61.10;;;;;;5051745;28;20056;-60
2022/08/25 00:31:14;;;;;;;4.60;2.30;;;19.60;61.10;;;;;;5053134;28;20102;-61
2022/08/25 00:33:42;;;;;;;2.97;2.42;;;19.60;61.80;;;;;;5055907;28;20076;-61
2022/08/25 00:36:11;;;;;;;3.00;2.45;;;19.60;61.50;;;;;;5073691;28;20025;-60
2022/08/25 00:38:40;;;;;;;3.28;2.33;;;19.60;61.70;;;;;;5060048;28;20055;-60
2022/08/25 00:41:09;;;;;;;3.88;2.47;;;19.50;61.60;;;;;;5066197;28;20083;-60
2022/08/25 00:43:46;;;;;;;2.88;2.17;;;19.50;61.70;;;;;;5062114;28;20044;-61
2022/08/25 00:46:17;;;;;;;6.65;2.85;;;19.50;63.00;;;;;;5044722;28;20037;-61
2022/08/25 00:48:45;;;;;;;2.80;2.42;;;19.50;61.90;;;;;;5074954;28;20029;-61
2022/08/25 00:51:15;;;;;;;5.18;2.75;;;19.40;62.00;;;;;;5062956;28;20729;-60
2022/08/25 00:53:42;;;;;;;3.10;2.33;;;19.40;61.90;;;;;;5051377;28;20030;-61
2022/08/25 00:56:08;;;;;;;4.38;2.55;;;19.40;61.90;;;;;;5062994;28;20040;-62
2022/08/25 00:58:36;;;;;;;3.17;2.47;;;19.40;62.00;;;;;;5072921;28;20025;-60
2022/08/25 01:01:02;;;;;;;5.03;2.38;;;19.30;62.30;;;;;;5079842;28;20040;-61
2022/08/25 01:03:32;;;;;;;3.60;2.65;;;19.40;62.30;;;;;;5061360;28;20032;-61
2022/08/25 01:05:58;;;;;;;3.50;2.75;;;19.30;63.10;;;;;;5056168;28;20048;-61
2022/08/25 01:08:28;;;;;;;2.90;2.15;;;19.30;62.40;;;;;;5058989;28;20100;-60
2022/08/25 01:10:55;;;;;;;3.40;2.58;;;19.30;62.70;;;;;;5081982;28;20062;-62
2022/08/25 01:13:39;;;;;;;3.92;2.65;;;19.20;62.60;;;;;;5064479;28;20109;-60
2022/08/25 01:16:05;;;;;;;7.65;2.78;;;19.20;63.80;;;;;;5049901;28;20052;-61
2022/08/25 01:18:53;;;;;;;3.95;2.70;;;19.20;62.70;;;;;;5076783;28;20047;-61
2022/08/25 01:21:21;;;;;;;5.57;2.65;;;19.20;63.60;;;;;;5049466;28;20029;-60
2022/08/25 01:23:48;;;;;;;3.00;2.67;;;19.20;62.60;;;;;;5070696;28;20048;-59
2022/08/25 01:26:14;;;;;;;4.05;2.90;;;19.20;62.60;;;;;;5060268;28;20139;-62
2022/08/25 01:29:19;;;;;;;8.68;3.10;;;19.20;62.80;;;;;;5064764;28;20446;-61
2022/08/25 01:31:28;;;;;;;4.03;2.85;;;19.10;62.90;;;;;;5067462;28;20052;-60
2022/08/25 01:33:55;;;;;;;4.70;3.10;;;19.10;62.90;;;;;;5051100;28;20113;-62
2022/08/25 01:36:22;;;;;;;3.75;3.03;;;19.10;63.10;;;;;;5068168;28;20261;-60
2022/08/25 01:38:48;;;;;;;3.80;3.17;;;19.00;63.30;;;;;;5065092;28;20032;-60
2022/08/25 01:41:20;;;;;;;4.18;3.13;;;19.00;63.50;;;;;;5062084;28;20119;-60
2022/08/25 01:43:46;;;;;;;3.72;3.20;;;19.00;63.80;;;;;;5052319;28;20066;-61
2022/08/25 01:46:13;;;;;;;5.45;3.38;;;19.00;63.60;;;;;;5058013;28;20056;-60
2022/08/25 01:48:38;;;;;;;4.35;3.08;;;19.00;63.60;;;;;;5070221;28;20025;-61
2022/08/25 01:51:05;;;;;;;6.25;3.40;;;19.00;63.80;;;;;;5074996;28;20141;-60
2022/08/25 01:53:30;;;;;;;5.32;3.20;;;18.90;63.70;;;;;;5069935;28;20028;-60
2022/08/25 01:56:04;;;;;;;6.05;3.30;;;18.90;63.70;;;;;;5055493;28;20131;-61
2022/08/25 01:58:34;;;;;;;4.63;3.28;;;18.90;63.70;;;;;;5062295;28;20741;-60
2022/08/25 02:01:03;;;;;;;4.45;3.33;;;18.90;64.10;;;;;;5055582;28;20092;-61
2022/08/25 02:03:30;;;;;;;8.85;2.97;;;18.90;64.00;;;;;;5075985;28;20033;-61
2022/08/25 02:05:57;;;;;;;6.40;3.33;;;18.90;64.10;;;;;;5072322;28;20075;-62
2022/08/25 02:08:23;;;;;;;4.45;3.40;;;18.90;64.10;;;;;;5058861;28;20424;-61
2022/08/25 02:10:50;;;;;;;7.60;3.30;;;18.80;64.20;;;;;;5073366;28;20044;-61
2022/08/25 02:13:16;;;;;;;7.45;3.35;;;18.80;64.30;;;;;;5055298;28;20081;-60
2022/08/25 02:15:44;;;;;;;5.78;3.35;;;18.80;64.50;;;;;;5055991;28;20063;-62
2022/08/25 02:18:10;;;;;;;3.75;2.97;;;18.80;64.60;;;;;;5066214;28;20043;-60
2022/08/25 02:20:36;;;;;;;4.72;3.10;;;18.80;64.40;;;;;;5055772;28;20037;-61
2022/08/25 02:23:03;;;;;;;7.07;3.10;;;18.80;64.40;;;;;;5058256;28;20096;-59
2022/08/25 02:25:29;;;;;;;7.60;3.40;;;18.80;64.50;;;;;;5061967;28;20033;-60
2022/08/25 02:27:55;;;;;;;3.30;3.00;;;18.70;64.50;;;;;;5057081;28;20029;-60
2022/08/25 02:30:21;;;;;;;4.57;3.03;;;18.70;64.50;;;;;;5076786;28;20035;-61
2022/08/25 02:32:46;;;;;;;6.03;3.42;;;18.70;64.30;;;;;;5065209;28;20090;-61
2022/08/25 02:35:12;;;;;;;5.57;3.30;;;18.70;64.40;;;;;;5070135;28;20037;-61
2022/08/25 02:37:38;;;;;;;6.35;3.40;;;18.70;64.50;;;;;;5069228;28;20067;-60
2022/08/25 02:40:04;;;;;;;3.28;2.97;;;18.70;64.60;;;;;;5061916;28;20029;-60
2022/08/25 02:42:30;;;;;;;5.28;2.95;;;18.60;64.50;;;;;;5064691;28;20056;-61
2022/08/25 02:44:56;;;;;;;7.90;3.28;;;18.60;64.60;;;;;;5064081;28;20514;-60
2022/08/25 02:47:22;;;;;;;5.65;3.10;;;18.60;64.70;;;;;;5064597;28;20075;-60
2022/08/25 02:49:47;;;;;;;7.07;3.10;;;18.60;64.70;;;;;;5060917;28;20048;-60
2022/08/25 02:52:14;;;;;;;4.57;3.20;;;18.60;64.60;;;;;;5075204;28;20040;-59
2022/08/25 02:54:41;;;;;;;7.07;3.30;;;18.60;64.80;;;;;;5058757;28;20032;-60
2022/08/25 02:57:09;;;;;;;4.30;3.15;;;18.50;64.80;;;;;;5064928;28;20043;-61
2022/08/25 02:59:35;;;;;;;5.32;3.70;;;18.50;64.80;;;;;;5057596;28;20021;-61
2022/08/25 03:02:00;;;;;;;4.22;3.47;;;18.50;65.00;;;;;;5058545;28;20017;-61
2022/08/25 03:04:27;;;;;;;6.63;3.45;;;18.50;65.10;;;;;;5066409;28;20043;-62
2022/08/25 03:06:53;;;;;;;5.15;3.42;;;18.50;65.10;;;;;;5085793;28;20060;-60
2022/08/25 03:09:19;;;;;;;5.65;3.30;;;18.40;65.00;;;;;;5050697;28;20036;-62
2022/08/25 03:11:46;;;;;;;4.20;3.05;;;18.40;65.00;;;;;;5074640;28;20064;-60
2022/08/25 03:14:11;;;;;;;6.40;3.10;;;18.40;65.20;;;;;;5060630;28;20030;-60
2022/08/25 03:16:37;;;;;;;5.35;3.15;;;18.40;65.20;;;;;;5076516;28;20090;-60
2022/08/25 03:19:03;;;;;;;3.60;3.30;;;18.40;65.20;;;;;;5058793;28;20025;-61
2022/08/25 03:21:29;;;;;;;4.15;3.40;;;18.30;65.30;;;;;;5068983;28;20037;-61
2022/08/25 03:23:58;;;;;;;4.95;3.35;;;18.30;65.30;;;;;;5081177;28;20437;-60
2022/08/25 03:29:09;;;;;;;13.25;3.67;;;18.30;65.50;;;;;;5053270;28;20059;-60
2022/08/25 03:31:35;;;;;;;7.68;3.35;;;18.30;65.40;;;;;;5075692;28;20040;-61
2022/08/25 03:34:01;;;;;;;5.35;3.58;;;18.30;65.40;;;;;;5075380;28;20032;-61
2022/08/25 03:36:27;;;;;;;8.52;3.72;;;18.30;65.50;;;;;;5080077;28;20548;-60
2022/08/25 03:38:53;;;;;;;4.13;3.47;;;18.30;65.60;;;;;;5081259;28;20044;-61
2022/08/25 03:41:28;;;;;;;4.50;3.05;;;18.20;65.60;;;;;;5070739;28;20064;-60
2022/08/25 03:43:54;;;;;;;;;;;18.20;66.30;;;;;;5059783;28;20115;-61
2022/08/25 03:46:31;;;;;;;6.07;3.60;;;18.30;65.60;;;;;;5068392;28;19916;-60
2022/08/25 03:48:59;;;;;;;5.72;3.70;;;18.20;66.30;;;;;;5055141;28;20039;-62
2022/08/25 03:51:34;;;;;;;4.32;3.58;;;18.20;65.70;;;;;;5066310;28;20025;-60
2022/08/25 03:54:02;;;;;;;9.27;4.00;;;18.10;66.00;;;;;;5075845;28;20032;-59
2022/08/25 03:56:27;;;;;;;5.82;3.95;;;18.10;66.10;;;;;;5065260;28;20052;-62
2022/08/25 03:58:54;;;;;;;7.70;3.65;;;18.10;66.20;;;;;;5083774;28;20029;-61
2022/08/25 04:01:20;;;;;;;4.18;3.40;;;18.10;66.90;;;;;;5045693;28;20033;-59
2022/08/25 04:03:46;;;;;;;4.70;3.47;;;18.10;66.30;;;;;;5077666;28;20028;-61
2022/08/25 04:06:14;;;;;;;5.18;3.20;;;18.10;66.30;;;;;;5047516;28;20071;-61
2022/08/25 04:08:40;;;;;;;4.22;3.60;;;18.10;66.30;;;;;;5074145;28;20025;-60
2022/08/25 04:11:14;;;;;;;4.40;3.60;;;18.00;66.20;;;;;;5048477;28;20060;-61
2022/08/25 04:13:41;;;;;;;4.07;3.65;;;18.00;66.50;;;;;;5064207;28;20025;-61
2022/08/25 04:20:02;;;;;;;5.10;3.50;;;18.00;66.40;;;;;;5099361;28;20405;-61
2022/08/25 04:22:29;;;;;;;5.72;3.78;;;18.00;66.00;;;;;;5097393;28;20032;-60
2022/08/25 04:24:57;;;;;;;6.60;3.65;;;18.00;66.40;;;;;;5085061;28;20036;-61
2022/08/25 04:27:22;;;;;;;6.93;3.95;;;17.90;66.50;;;;;;5098080;28;20020;-60
2022/08/25 04:29:48;;;;;;;5.03;3.85;;;17.90;66.70;;;;;;5083126;28;20032;-59
2022/08/25 04:32:13;;;;;;;6.78;3.97;;;17.90;66.80;;;;;;5097535;28;20032;-62
2022/08/25 04:34:40;;;;;;;6.32;4.13;;;17.90;66.90;;;;;;5093206;28;20079;-61
2022/08/25 04:37:06;;;;;;;8.93;3.72;;;17.90;66.90;;;;;;5098703;28;20028;-60
2022/08/25 04:39:32;;;;;;;7.80;3.70;;;17.90;66.90;;;;;;5097820;28;20037;-60
2022/08/25 04:41:59;;;;;;;5.20;3.97;;;17.90;66.90;;;;;;5089355;28;20048;-61
2022/08/25 04:44:25;;;;;;;5.40;3.95;;;17.90;67.00;;;;;;5099201;28;20074;-62
2022/08/25 04:46:50;;;;;;;5.25;3.60;;;17.90;67.10;;;;;;5097955;28;20032;-62
2022/08/25 04:49:16;;;;;;;6.03;4.10;;;17.90;67.20;;;;;;5095898;28;20035;-61
2022/08/25 04:51:42;;;;;;;6.68;4.20;;;17.90;67.20;;;;;;5082374;28;20090;-62
2022/08/25 04:54:15;;;;;;;5.63;3.95;;;17.90;67.30;;;;;;5098548;28;20028;-61
2022/08/25 04:56:42;;;;;;;4.90;4.17;;;17.90;67.50;;;;;;5090194;28;20029;-61
2022/08/25 04:59:11;;;;;;;5.57;3.88;;;17.90;67.90;;;;;;5095545;28;20044;-62
2022/08/25 05:01:37;;;;;;;8.23;4.13;;;17.90;67.30;;;;;;5100330;28;20701;-60
2022/08/25 05:04:05;;;;;;;4.88;3.90;;;17.90;67.20;;;;;;5084019;28;20054;-62
2022/08/25 05:06:31;;;;;;;5.75;3.78;;;18.00;67.70;;;;;;5099377;28;20032;-62
2022/08/25 05:08:58;;;;;;;5.30;3.70;;;18.00;67.70;;;;;;5094905;28;20077;-61
2022/08/25 05:11:25;;;;;;;5.20;3.85;;;18.00;67.40;;;;;;5089752;28;20029;-61
2022/08/25 05:13:53;;;;;;;6.18;3.85;;;18.10;67.60;;;;;;5090927;28;20506;-62
2022/08/25 05:16:20;;;;;;;5.82;3.67;;;18.10;67.80;;;;;;5079951;28;20549;-61
2022/08/25 05:18:47;;;;;;;5.68;3.40;;;18.20;67.80;;;;;;5090508;28;20108;-60
2022/08/25 05:21:18;;;;;;;6.18;3.65;;;18.20;67.80;;;;;;5080901;28;20449;-60
2022/08/25 05:23:45;;;;;;;6.78;4.50;;;18.30;68.30;;;;;;5089623;28;20794;-60
2022/08/25 05:26:21;;;;;;;4.65;4.07;;;18.40;68.20;;;;;;5079700;28;20033;-60
2022/08/25 05:28:49;;;;;;;5.80;4.32;;;18.40;68.70;;;;;;5070315;28;20024;-62
2022/08/25 05:31:15;;;;;;;8.93;4.35;;;18.50;68.30;;;;;;5083919;28;20021;-61
2022/08/25 05:33:41;;;;;;;5.18;4.30;;;18.60;68.20;;;;;;5080479;28;20047;-61
2022/08/25 05:36:09;;;;;;;7.00;4.43;;;18.70;68.20;;;;;;5086263;28;20558;-62
2022/08/25 05:38:36;;;;;;;8.40;4.35;;;18.80;68.10;;;;;;5066448;28;20092;-60
2022/08/25 05:41:08;;;;;;;7.18;4.30;;;18.90;67.90;;;;;;5085798;28;20036;-60
2022/08/25 05:43:38;;;;;;;11.25;4.22;;;19.00;68.00;;;;;;5059020;28;20033;-60
2022/08/25 05:46:05;;;;;;;10.45;4.13;;;19.10;67.90;;;;;;5084671;28;20103;-61
2022/08/25 05:48:30;;;;;;;5.72;3.85;;;19.20;67.80;;;;;;5069559;28;20033;-60
2022/08/25 05:50:59;;;;;;;5.38;3.60;;;19.30;67.80;;;;;;5066394;28;20144;-61
2022/08/25 05:53:27;;;;;;;10.55;4.30;;;19.40;67.80;;;;;;5083474;28;20029;-61
2022/08/25 05:55:54;;;;;;;7.13;3.85;;;19.50;67.50;;;;;;5082771;28;20032;-61
2022/08/25 05:58:21;;;;;;;8.68;4.25;;;19.60;67.20;;;;;;5084715;28;20046;-62
2022/08/25 06:00:46;;;;;;;7.25;4.00;;;19.70;67.10;;;;;;5065122;28;20037;-61
2022/08/25 06:03:12;;;;;;;6.90;4.40;;;19.80;67.00;;;;;;5079728;28;20033;-60
2022/08/25 06:05:38;;;;;;;10.27;4.18;;;19.90;66.80;;;;;;5067039;28;20055;-61
2022/08/25 06:08:04;;;;;;;9.68;4.53;;;20.00;66.70;;;;;;5082909;28;20794;-61
2022/08/25 06:10:30;;;;;;;5.57;3.30;;;20.10;66.60;;;;;;5068195;28;20055;-60
2022/08/25 06:12:55;;;;;;;8.70;3.60;;;20.20;66.50;;;;;;5080116;28;20048;-60
2022/08/25 06:15:23;;;;;;;10.52;3.90;;;20.40;66.40;;;;;;5063877;28;20079;-60
2022/08/25 06:17:49;;;;;;;9.88;3.70;;;20.40;66.30;;;;;;5066620;28;20033;-61
2022/08/25 06:20:20;;;;;;;6.88;4.70;;;20.60;66.10;;;;;;5069948;28;20040;-61
2022/08/25 06:22:46;;;;;;;9.40;3.97;;;20.70;66.20;;;;;;5060582;28;20094;-60
2022/08/25 06:25:14;;;;;;;9.75;4.18;;;20.90;66.00;;;;;;5066564;28;20052;-61
2022/08/25 06:27:40;;;;;;;8.95;4.07;;;21.00;65.90;;;;;;5070044;28;20033;-61
2022/08/25 06:30:08;;;;;;;8.70;4.85;;;21.10;65.90;;;;;;5064959;28;20036;-61
2022/08/25 06:32:35;;;;;;;7.43;4.22;;;21.30;66.10;;;;;;5070837;28;20028;-61
2022/08/25 06:35:03;;;;;;;10.85;5.53;;;21.40;65.90;;;;;;5063869;28;20080;-61
2022/08/25 06:37:29;;;;;;;11.07;5.88;;;21.60;65.70;;;;;;5066886;28;20044;-62
2022/08/25 06:39:55;;;;;;;10.95;6.00;;;21.70;65.70;;;;;;5078607;28;20037;-61
2022/08/25 06:42:21;;;;;;;9.30;5.40;;;21.90;65.50;;;;;;5068804;28;20135;-62
2022/08/25 06:44:47;;;;;;;11.52;5.80;;;22.00;65.30;;;;;;5067729;28;20047;-61
2022/08/25 06:47:14;;;;;;;9.50;5.45;;;22.10;65.30;;;;;;5065166;28;20084;-61
2022/08/25 06:49:41;;;;;;;10.60;5.63;;;22.30;65.10;;;;;;5065157;28;20024;-61
2022/08/25 06:52:07;;;;;;;7.82;5.45;;;22.40;64.80;;;;;;5071198;28;20064;-60
2022/08/25 06:54:33;;;;;;;9.95;5.63;;;22.50;64.60;;;;;;5061467;28;20036;-61
2022/08/25 06:56:59;;;;;;;8.15;5.47;;;22.70;64.50;;;;;;5067176;28;20032;-61
2022/08/25 06:59:25;;;;;;;10.25;6.35;;;22.80;64.20;;;;;;5063190;28;20506;-60
2022/08/25 07:01:51;;;;;;;8.23;5.95;;;22.90;64.10;;;;;;5078710;28;20474;-60
2022/08/25 07:04:17;;;;;;;9.48;6.10;;;23.10;64.10;;;;;;5065871;28;20033;-63
2022/08/25 07:06:43;;;;;;;6.53;5.70;;;23.20;63.80;;;;;;5065699;28;20041;-62
2022/08/25 07:09:11;;;;;;;9.77;6.85;;;23.30;63.70;;;;;;5067665;28;20016;-62
2022/08/25 07:11:41;;;;;;;10.80;5.85;;;23.50;63.50;;;;;;5059518;28;20151;-61
2022/08/25 07:14:09;;;;;;;8.88;6.18;;;23.60;63.00;;;;;;5056457;28;20024;-61
2022/08/25 07:16:36;;;;;;;9.40;5.95;;;23.80;62.70;;;;;;5064019;28;20029;-59
2022/08/25 07:19:03;;;;;;;7.32;5.75;;;23.80;62.50;;;;;;5067206;28;20497;-62
2022/08/25 07:21:32;;;;;;;7.82;5.55;;;24.00;62.20;;;;;;5073186;28;20037;-61
2022/08/25 07:23:59;;;;;;;12.40;6.25;;;24.00;61.80;;;;;;5046692;28;20128;-62
2022/08/25 07:26:28;;;;;;;6.60;5.28;;;24.20;61.40;;;;;;5084021;28;20028;-61
2022/08/25 07:28:55;;;;;;;8.18;5.53;;;24.30;61.40;;;;;;5063884;28;20021;-61
2022/08/25 07:31:21;;;;;;;7.45;5.55;;;24.30;61.40;;;;;;5072881;28;20032;-61
2022/08/25 07:36:38;;;;;;;7.57;6.07;;;24.60;61.20;;;;;;5066714;28;20092;-60
2022/08/25 07:39:04;;;;;;;9.43;5.85;;;24.70;60.70;;;;;;5065810;28;20075;-61
2022/08/25 07:41:33;;;;;;;6.55;4.95;;;24.80;60.50;;;;;;5083975;28;20053;-61
2022/08/25 07:43:59;;;;;;;7.57;4.90;;;25.00;60.10;;;;;;5062868;28;20033;-61
2022/08/25 07:46:24;;;;;;;7.75;5.43;;;25.00;60.00;;;;;;5083350;28;20042;-63
2022/08/25 07:48:50;;;;;;;6.10;5.18;;;25.10;60.10;;;;;;5067396;28;20087;-61
2022/08/25 07:51:16;;;;;;;6.63;5.00;;;25.20;59.70;;;;;;5063741;28;20032;-61
2022/08/25 07:53:42;;;;;;;8.27;5.32;;;25.30;59.50;;;;;;5072196;28;20033;-61
2022/08/25 07:56:12;;;;;;;8.32;5.07;;;25.40;59.60;;;;;;5061658;28;20051;-61
2022/08/25 07:58:39;;;;;;;6.47;5.35;;;25.60;59.30;;;;;;5043612;28;20077;-62
2022/08/25 08:01:06;;;;;;;10.27;5.57;;;25.70;59.30;;;;;;5063104;28;20091;-61
2022/08/25 08:03:33;;;;;;;8.73;5.38;;;25.80;58.90;;;;;;5079682;28;20028;-62
2022/08/25 08:06:00;;;;;;;6.78;5.20;;;25.80;58.70;;;;;;5070246;28;20033;-61
2022/08/25 08:08:26;;;;;;;7.63;5.00;;;25.90;58.50;;;;;;5069874;28;20040;-62
2022/08/25 08:10:52;;;;;;;6.82;4.75;;;26.00;58.50;;;;;;5071114;28;20032;-62
2022/08/25 08:13:18;;;;;;;8.55;5.47;;;26.10;58.10;;;;;;5067425;28;20029;-62
2022/08/25 08:15:44;;;;;;;9.75;4.95;;;26.20;58.00;;;;;;5063196;28;20040;-61
2022/08/25 08:18:10;;;;;;;9.43;5.05;;;26.20;57.70;;;;;;5068364;28;20071;-62
2022/08/25 08:20:36;;;;;;;7.30;4.88;;;26.30;57.70;;;;;;5080804;28;20036;-61
2022/08/25 08:23:02;;;;;;;6.85;4.35;;;26.40;57.50;;;;;;5078410;28;20028;-62
2022/08/25 08:25:29;;;;;;;7.32;5.03;;;26.50;57.30;;;;;;5066455;28;20079;-61
2022/08/25 08:27:55;;;;;;;7.70;4.82;;;26.50;56.70;;;;;;5078533;28;20035;-60
2022/08/25 08:30:21;;;;;;;7.80;5.80;;;26.50;56.90;;;;;;5069801;28;20020;-61
2022/08/25 08:32:48;;;;;;;6.30;4.93;;;26.60;56.70;;;;;;5079779;28;20037;-62
2022/08/25 08:35:17;;;;;;;7.60;5.35;;;26.70;56.70;;;;;;5071531;28;20056;-62
2022/08/25 08:37:44;;;;;;;7.13;5.28;;;26.80;56.70;;;;;;5079389;28;20036;-61
2022/08/25 08:40:13;;;;;;;6.05;4.93;;;26.80;56.20;;;;;;5070586;28;20056;-62
2022/08/25 08:42:45;;;;;;;6.28;5.18;;;26.90;56.30;;;;;;5081669;28;20032;-63
2022/08/25 08:45:32;;;;;;;10.85;5.28;;;27.10;56.30;;;;;;5072458;28;20040;-61
2022/08/25 08:48:27;;;;;;;7.53;4.38;;;27.20;55.30;;;;;;5073526;28;20120;-62
2022/08/25 08:51:04;;;;;;;6.50;5.05;;;27.30;55.10;;;;;;5061576;28;20029;-61
2022/08/25 08:53:53;;;;;;;5.43;4.72;;;27.40;54.50;;;;;;5070181;28;20028;-61
2022/08/25 08:56:42;;;;;;;9.73;4.75;;;27.50;54.80;;;;;;5064462;28;20518;-62
2022/08/25 08:59:25;;;;;;;4.93;4.38;;;27.50;54.70;;;;;;5064787;28;20048;-63
2022/08/25 09:01:56;;;;;;;7.10;4.80;;;27.60;54.30;;;;;;5066640;28;20029;-61
2022/08/25 09:04:32;;;;;;;6.20;4.60;;;27.70;54.40;;;;;;5055768;28;20050;-61
2022/08/25 09:07:00;;;;;;;5.95;4.70;;;27.70;54.10;;;;;;5079554;28;20033;-61
2022/08/25 09:09:29;;;;;;;5.65;4.18;;;27.80;53.90;;;;;;5075538;28;20171;-61
2022/08/25 09:12:16;;;;;;;6.03;4.70;;;27.90;54.00;;;;;;5080101;28;20081;-62
2022/08/25 09:15:03;;;;;;;6.45;5.20;;;27.90;53.70;;;;;;5067873;28;20025;-62
2022/08/25 09:18:08;;;;;;;7.65;5.15;;;28.00;53.50;;;;;;5077143;28;20033;-61
2022/08/25 09:20:48;;;;;;;5.28;4.57;;;28.10;52.70;;;;;;5068400;28;20049;-62
2022/08/25 09:23:38;;;;;;;6.30;4.88;;;28.20;53.20;;;;;;5073799;28;20028;-62
2022/08/25 09:26:10;;;;;;;6.80;4.75;;;28.30;52.90;;;;;;5054016;28;20048;-62
2022/08/25 09:28:44;;;;;;;6.30;4.70;;;28.30;52.70;;;;;;5086589;28;20035;-61
2022/08/25 09:31:17;;;;;;;7.68;5.32;;;28.30;53.40;;;;;;5073388;28;20467;-61
2022/08/25 09:33:43;;;;;;;9.82;5.30;;;28.40;53.10;;;;;;5085903;28;20063;-62
2022/08/25 09:36:09;;;;;;;6.72;4.70;;;28.40;52.80;;;;;;5081440;28;20088;-62
2022/08/25 09:38:35;;;;;;;5.25;4.25;;;28.50;53.20;;;;;;5054116;28;20040;-61
2022/08/25 09:41:01;;;;;;;5.30;4.05;;;28.50;52.80;;;;;;5066229;28;20029;-61
2022/08/25 09:43:51;;;;;;;7.32;4.18;;;28.60;52.60;;;;;;5068856;28;20041;-62
2022/08/25 09:46:24;;;;;;;6.28;3.95;;;28.70;52.40;;;;;;5062386;28;20846;-61
2022/08/25 09:48:54;;;;;;;6.65;4.57;;;28.80;52.10;;;;;;5063315;28;20028;-61
2022/08/25 09:51:20;;;;;;;8.35;4.80;;;28.90;52.00;;;;;;5064789;28;20040;-62
2022/08/25 09:53:52;;;;;;;6.57;4.13;;;29.00;52.10;;;;;;5071244;28;20774;-62
2022/08/25 09:56:24;;;;;;;6.72;4.75;;;29.00;51.80;;;;;;5050036;28;20101;-62
2022/08/25 09:58:51;;;;;;;5.22;3.90;;;29.00;51.10;;;;;;5065896;28;20041;-62
2022/08/25 10:01:18;;;;;;;3.85;3.45;;;29.10;51.90;;;;;;5067874;28;20055;-63
2022/08/25 10:03:59;;;;;;;9.77;4.65;;;29.20;52.00;;;;;;5081762;28;20033;-63
2022/08/25 10:06:29;;;;;;;6.55;4.90;;;29.20;51.70;;;;;;5055089;28;20037;-63
2022/08/25 10:09:05;;;;;;;5.25;4.07;;;29.40;51.50;;;;;;5065049;28;20522;-62
2022/08/25 10:11:41;;;;;;;5.72;3.97;;;29.40;50.50;;;;;;5063880;28;20033;-62
2022/08/25 10:14:06;;;;;;;5.97;4.03;;;29.40;50.00;;;;;;5065815;28;20037;-63
2022/08/25 10:16:32;;;;;;;5.20;4.22;;;29.50;50.70;;;;;;5065205;28;20059;-62
2022/08/25 10:19:08;;;;;;;4.88;3.92;;;29.50;50.50;;;;;;5073331;28;20060;-63
2022/08/25 10:21:37;;;;;;;4.65;3.92;;;29.50;49.50;;;;;;5063091;28;20499;-63
2022/08/25 10:24:04;;;;;;;5.70;3.92;;;29.60;50.00;;;;;;5071881;28;20040;-62
2022/08/25 10:26:41;;;;;;;6.57;4.20;;;29.60;50.20;;;;;;5078196;28;20031;-62
2022/08/25 10:29:13;;;;;;;5.05;3.58;;;29.70;49.50;;;;;;5045765;28;20049;-63
2022/08/25 10:32:24;;;;;;;5.40;3.72;;;29.70;50.30;;;;;;5064271;28;20025;-63
2022/08/25 10:34:55;;;;;;;4.55;3.25;;;29.80;49.80;;;;;;5040855;28;20037;-61
2022/08/25 10:38:04;;;;;;;4.90;3.58;;;29.90;49.70;;;;;;5062621;28;20041;-62
2022/08/25 10:40:49;;;;;;;4.80;3.50;;;30.00;48.90;;;;;;4991649;28;20120;-61
2022/08/25 10:43:34;;;;;;;5.10;3.92;;;30.10;48.90;;;;;;4992574;28;20556;-62
2022/08/25 10:46:14;;;;;;;8.52;3.70;;;30.10;48.90;;;;;;4982090;28;20045;-62
2022/08/25 10:48:42;;;;;;;17.38;4.18;;;30.20;48.70;;;;;;4977869;28;20053;-62
2022/08/25 10:51:23;;;;;;;9.65;3.85;;;30.30;48.50;;;;;;4980224;28;20121;-62
2022/08/25 10:53:59;;;;;;;6.72;3.63;;;30.40;47.40;;;;;;4984574;28;20062;-63
2022/08/25 10:56:53;;;;;;;9.40;4.00;;;30.40;48.10;;;;;;4966356;28;20035;-61
2022/08/25 10:59:24;;;;;;;3.53;3.22;;;30.50;46.60;;;;;;4982486;28;20035;-61
2022/08/25 11:02:04;;;;;;;3.83;3.45;;;30.60;48.00;;;;;;4993144;28;20035;-62
2022/08/25 11:04:48;;;;;;;5.63;3.40;;;30.60;48.30;;;;;;4981198;28;20039;-62
2022/08/25 11:07:36;;;;;;;12.50;3.03;;;30.70;47.60;;;;;;4984838;28;20425;-61
2022/08/25 11:10:12;;;;;;;8.00;3.05;;;30.80;47.30;;;;;;4986063;28;20037;-63
2022/08/25 11:12:43;;;;;;;6.03;2.50;;;30.80;46.80;;;;;;4993637;28;20049;-61
2022/08/25 11:15:21;;;;;;;4.00;3.03;;;30.90;47.60;;;;;;5002474;28;20042;-62
2022/08/25 11:18:02;;;;;;;6.60;2.90;;;31.00;47.00;;;;;;5056280;28;20372;-60
2022/08/25 11:20:41;;;;;;;3.22;2.92;;;31.10;47.10;;;;;;5065545;28;20048;-61
2022/08/25 11:23:18;;;;;;;3.75;3.15;;;31.10;46.90;;;;;;5063804;28;20209;-62
2022/08/25 11:25:50;;;;;;;5.28;3.67;;;31.20;46.20;;;;;;5092884;28;20140;-62
2022/08/25 11:28:31;;;;;;;4.03;3.20;;;31.20;46.30;;;;;;5061784;28;20403;-62
2022/08/25 11:31:00;;;;;;;7.65;3.00;;;31.20;46.30;;;;;;5065683;28;20214;-64
2022/08/25 11:33:29;;;;;;;4.10;3.17;;;31.30;46.60;;;;;;5069042;28;20183;-61
2022/08/25 11:35:59;;;;;;;9.77;2.95;;;31.30;46.10;;;;;;5071106;28;20025;-62
2022/08/25 11:38:40;;;;;;;4.10;2.90;;;31.40;45.80;;;;;;5070752;28;20041;-62
2022/08/25 11:41:34;;;;;;;4.35;3.47;;;31.50;45.20;;;;;;5071257;28;20028;-61
2022/08/25 11:44:41;;;;;;;2.95;2.55;;;31.60;44.50;;;;;;5053937;28;20047;-62
2022/08/25 11:47:37;;;;;;;4.38;3.25;;;31.70;45.00;;;;;;5010412;28;20056;-62
2022/08/25 11:50:08;;;;;;;3.75;2.80;;;31.80;44.50;;;;;;5003571;28;20034;-62
2022/08/25 11:52:34;;;;;;;6.05;2.78;;;31.70;44.20;;;;;;5011091;28;20089;-63
2022/08/25 11:55:15;;;;;;;5.15;2.72;;;31.70;45.00;;;;;;5013936;28;20033;-62
2022/08/25 11:57:44;;;;;;;8.25;3.05;;;31.60;45.30;;;;;;5011264;28;20045;-62
2022/08/25 12:00:33;;;;;;;3.63;2.78;;;31.60;44.70;;;;;;5016564;28;20786;-62
2022/08/25 12:02:59;;;;;;;4.80;3.15;;;31.60;44.70;;;;;;5015227;28;20049;-62
2022/08/25 12:05:28;;;;;;;6.82;2.85;;;31.60;44.70;;;;;;5018009;28;20034;-62
2022/08/25 12:10:57;;;;;;;5.20;3.38;;;31.60;44.70;;;;;;5001553;28;20072;-60
2022/08/25 12:13:49;;;;;;;3.63;3.13;;;31.50;43.70;;;;;;5029041;28;20034;-63
2022/08/25 12:16:39;;;;;;;6.30;3.42;;;31.40;44.20;;;;;;5035739;28;20054;-62
2022/08/25 12:19:26;;;;;;;3.47;3.15;;;31.30;43.80;;;;;;5031747;28;20068;-63
2022/08/25 12:21:55;;;;;;;4.05;2.95;;;31.30;44.30;;;;;;5020754;28;20119;-62
2022/08/25 12:24:44;;;;;;;8.90;3.00;;;31.40;45.40;;;;;;5078641;28;20055;-63
2022/08/25 12:27:23;;;;;;;6.28;3.30;;;31.50;44.90;;;;;;5066956;28;20383;-63
2022/08/25 12:30:10;;;;;;;7.78;3.35;;;31.50;45.10;;;;;;5056714;28;20025;-62
2022/08/25 12:33:17;;;;;;;5.13;3.70;;;31.70;44.40;;;;;;5064908;28;20033;-61
2022/08/25 12:36:02;;;;;;;10.65;3.45;;;31.80;44.30;;;;;;5061328;28;20446;-62
2022/08/25 12:38:30;;;;;;;8.10;3.55;;;31.80;42.90;;;;;;5071772;28;20048;-63
2022/08/25 12:41:08;;;;;;;3.83;3.13;;;31.80;43.40;;;;;;5071883;28;20024;-63
2022/08/25 12:43:38;;;;;;;3.17;2.80;;;31.70;44.10;;;;;;5073970;28;20060;-62
2022/08/25 12:46:26;;;;;;;6.22;2.83;;;31.60;43.50;;;;;;5056451;28;20040;-62
2022/08/25 12:48:59;;;;;;;3.97;3.00;;;31.50;44.40;;;;;;5083608;28;20013;-63
2022/08/25 12:52:03;;;;;;;3.67;2.70;;;31.50;44.30;;;;;;5072301;28;20377;-62
2022/08/25 12:54:39;;;;;;;4.47;2.78;;;31.60;44.70;;;;;;5062122;28;20064;-62
2022/08/25 12:57:21;;;;;;;4.72;2.92;;;31.70;43.80;;;;;;5063391;28;20032;-63
2022/08/25 12:59:52;;;;;;;5.68;3.03;;;31.80;42.40;;;;;;5055115;28;20269;-62
2022/08/25 13:02:35;;;;;;;5.03;2.85;;;32.00;43.90;;;;;;5065176;28;20123;-61
2022/08/25 13:05:15;;;;;;;3.53;2.88;;;32.10;43.20;;;;;;5063080;28;20056;-61
2022/08/25 13:07:59;;;;;;;9.15;3.40;;;32.30;41.90;;;;;;5052085;28;20032;-62
2022/08/25 13:10:43;;;;;;;3.10;2.47;;;32.50;42.70;;;;;;5066406;28;20033;-62
2022/08/25 13:13:54;;;;;;;3.38;2.47;;;32.60;41.00;;;;;;5068618;28;20048;-62
2022/08/25 13:16:22;;;;;;;3.00;2.45;;;32.80;40.90;;;;;;5063618;28;20074;-61
2022/08/25 13:18:48;;;;;;;4.95;2.88;;;33.00;42.20;;;;;;5074700;28;20155;-61